sensor_id;sensor_type;location;lat;lon;timestamp;pressure;altitude;pressure_sealevel;temperature;humidity
35848;BME280;22332;51.954;20.118;2023-09-18T03:38:27;100267.95;;;15.42;83.09
35848;BME280;22332;51.954;20.118;2023-09-18T03:41:35;100266.77;;;15.38;83.05
35848;BME280;22332;51.954;20.118;2023-09-18T03:44:40;100265.52;;;15.35;83.04
35848;BME280;22332;51.954;20.118;2023-09-18T03:47:46;100264.59;;;15.32;83.12
35848;BME280;22332;51.954;20.118;2023-09-18T03:50:55;100263.95;;;15.26;83.13
35848;BME280;22332;51.954;20.118;2023-09-18T03:54:00;100259.97;;;15.20;83.11
35848;BME280;22332;51.954;20.118;2023-09-18T03:57:06;100255.70;;;15.17;83.17
35848;BME280;22332;51.954;20.118;2023-09-18T04:00:12;100253.27;;;15.15;83.10
35848;BME280;22332;51.954;20.118;2023-09-18T04:03:19;100255.27;;;15.13;83.08
35848;BME280;22332;51.954;20.118;2023-09-18T04:06:25;100251.41;;;15.12;83.06
35848;BME280;22332;51.954;20.118;2023-09-18T04:09:30;100248.46;;;15.08;83.14
35848;BME280;22332;51.954;20.118;2023-09-18T04:12:36;100242.39;;;15.06;82.92
35848;BME280;22332;51.954;20.118;2023-09-18T04:15:42;100240.10;;;15.03;82.90
35848;BME280;22332;51.954;20.118;2023-09-18T04:18:50;100238.20;;;14.98;83.09
35848;BME280;22332;51.954;20.118;2023-09-18T04:21:56;100238.78;;;14.95;83.18
35848;BME280;22332;51.954;20.118;2023-09-18T04:25:02;100237.94;;;14.95;83.29
35848;BME280;22332;51.954;20.118;2023-09-18T04:28:09;100233.09;;;14.96;83.29
35848;BME280;22332;51.954;20.118;2023-09-18T04:31:17;100233.80;;;14.96;83.38
35848;BME280;22332;51.954;20.118;2023-09-18T04:34:23;100229.75;;;14.94;83.33
35848;BME280;22332;51.954;20.118;2023-09-18T04:37:29;100231.88;;;14.92;83.61
35848;BME280;22332;51.954;20.118;2023-09-18T04:40:34;100228.02;;;14.94;83.67
35848;BME280;22332;51.954;20.118;2023-09-18T04:43:40;100222.40;;;14.94;83.47
35848;BME280;22332;51.954;20.118;2023-09-18T04:46:47;100225.98;;;14.96;83.62
35848;BME280;22332;51.954;20.118;2023-09-18T04:49:53;100224.48;;;14.98;83.47
35848;BME280;22332;51.954;20.118;2023-09-18T04:52:59;100225.46;;;15.00;83.51
35848;BME280;22332;51.954;20.118;2023-09-18T04:56:05;100218.32;;;15.00;83.62
35848;BME280;22332;51.954;20.118;2023-09-18T04:59:11;100214.42;;;15.00;83.64
35848;BME280;22332;51.954;20.118;2023-09-18T05:02:17;100218.27;;;15.00;83.87
35848;BME280;22332;51.954;20.118;2023-09-18T05:05:23;100216.48;;;15.04;83.96
35848;BME280;22332;51.954;20.118;2023-09-18T05:08:31;100213.48;;;15.10;84.18
35848;BME280;22332;51.954;20.118;2023-09-18T05:11:39;100209.27;;;15.17;84.44
35848;BME280;22332;51.954;20.118;2023-09-18T05:14:46;100209.55;;;15.25;84.95
35848;BME280;22332;51.954;20.118;2023-09-18T05:17:52;100207.80;;;15.32;84.91
35848;BME280;22332;51.954;20.118;2023-09-18T05:21:01;100206.84;;;15.42;85.37
35848;BME280;22332;51.954;20.118;2023-09-18T05:24:08;100207.21;;;15.53;85.57
35848;BME280;22332;51.954;20.118;2023-09-18T05:27:14;100203.75;;;15.67;85.61
35848;BME280;22332;51.954;20.118;2023-09-18T05:30:23;100201.20;;;15.79;85.68
35848;BME280;22332;51.954;20.118;2023-09-18T05:33:32;100203.42;;;15.90;85.83
35848;BME280;22332;51.954;20.118;2023-09-18T05:36:37;100197.27;;;16.01;86.19
35848;BME280;22332;51.954;20.118;2023-09-18T05:39:43;100197.07;;;16.13;86.35
35848;BME280;22332;51.954;20.118;2023-09-18T05:42:49;100190.32;;;16.25;86.61
35848;BME280;22332;51.954;20.118;2023-09-18T05:45:57;100195.05;;;16.39;86.78
35848;BME280;22332;51.954;20.118;2023-09-18T05:49:05;100199.52;;;16.48;86.82
35848;BME280;22332;51.954;20.118;2023-09-18T05:52:10;100201.05;;;16.57;86.81
35848;BME280;22332;51.954;20.118;2023-09-18T05:55:16;100197.25;;;16.67;87.00
35848;BME280;22332;51.954;20.118;2023-09-18T05:58:22;100197.73;;;16.79;87.19
35848;BME280;22332;51.954;20.118;2023-09-18T06:01:30;100195.63;;;16.89;87.37
35848;BME280;22332;51.954;20.118;2023-09-18T06:04:35;100198.59;;;16.98;87.41
35848;BME280;22332;51.954;20.118;2023-09-18T06:07:41;100191.85;;;17.06;87.66
35848;BME280;22332;51.954;20.118;2023-09-18T06:10:47;100195.15;;;17.17;87.86
35848;BME280;22332;51.954;20.118;2023-09-18T06:13:53;100189.91;;;17.28;87.98
35848;BME280;22332;51.954;20.118;2023-09-18T06:17:01;100189.76;;;17.37;87.95
35848;BME280;22332;51.954;20.118;2023-09-18T06:20:08;100184.41;;;17.46;88.04
35848;BME280;22332;51.954;20.118;2023-09-18T06:23:15;100186.94;;;17.55;88.18
35848;BME280;22332;51.954;20.118;2023-09-18T06:26:22;100179.59;;;17.64;88.16
35848;BME280;22332;51.954;20.118;2023-09-18T06:29:27;100179.30;;;17.75;88.31
35848;BME280;22332;51.954;20.118;2023-09-18T06:32:33;100175.09;;;17.87;88.43
35848;BME280;22332;51.954;20.118;2023-09-18T06:35:41;100168.56;;;17.97;88.31
35848;BME280;22332;51.954;20.118;2023-09-18T06:38:48;100172.49;;;18.06;88.51
35848;BME280;22332;51.954;20.118;2023-09-18T06:41:54;100172.52;;;18.17;88.57
35848;BME280;22332;51.954;20.118;2023-09-18T06:45:00;100167.67;;;18.29;88.55
35848;BME280;22332;51.954;20.118;2023-09-18T06:48:11;100171.92;;;18.41;88.54
35848;BME280;22332;51.954;20.118;2023-09-18T06:51:18;100168.90;;;18.52;88.55
35848;BME280;22332;51.954;20.118;2023-09-18T06:54:25;100171.31;;;18.64;88.56
35848;BME280;22332;51.954;20.118;2023-09-18T06:57:30;100168.77;;;18.74;88.46
35848;BME280;22332;51.954;20.118;2023-09-18T07:00:36;100173.29;;;18.87;88.22
35848;BME280;22332;51.954;20.118;2023-09-18T07:03:42;100173.89;;;18.99;88.17
35848;BME280;22332;51.954;20.118;2023-09-18T07:06:47;100172.84;;;19.10;88.07
35848;BME280;22332;51.954;20.118;2023-09-18T07:09:53;100169.79;;;19.19;88.06
35848;BME280;22332;51.954;20.118;2023-09-18T07:12:59;100167.27;;;19.29;88.10
35848;BME280;22332;51.954;20.118;2023-09-18T07:16:05;100166.92;;;19.42;88.06
35848;BME280;22332;51.954;20.118;2023-09-18T07:19:11;100162.21;;;19.55;87.82
35848;BME280;22332;51.954;20.118;2023-09-18T07:22:21;100166.88;;;19.70;87.50
35848;BME280;22332;51.954;20.118;2023-09-18T07:25:27;100165.33;;;19.84;87.40
35848;BME280;22332;51.954;20.118;2023-09-18T07:28:32;100162.73;;;20.01;87.39
35848;BME280;22332;51.954;20.118;2023-09-18T07:31:38;100153.52;;;20.20;87.16
35848;BME280;22332;51.954;20.118;2023-09-18T07:34:44;100152.02;;;20.38;86.98
35848;BME280;22332;51.954;20.118;2023-09-18T07:37:51;100151.58;;;20.51;86.61
35848;BME280;22332;51.954;20.118;2023-09-18T07:40:57;100149.69;;;20.61;86.50
35848;BME280;22332;51.954;20.118;2023-09-18T07:44:02;100150.27;;;20.68;86.36
35848;BME280;22332;51.954;20.118;2023-09-18T07:47:08;100158.70;;;20.76;86.23
35848;BME280;22332;51.954;20.118;2023-09-18T07:50:14;100158.02;;;20.83;86.07
35848;BME280;22332;51.954;20.118;2023-09-18T07:53:19;100151.95;;;20.94;85.70
35848;BME280;22332;51.954;20.118;2023-09-18T07:56:25;100155.23;;;21.00;85.70
35848;BME280;22332;51.954;20.118;2023-09-18T07:59:31;100148.14;;;21.06;85.31
35848;BME280;22332;51.954;20.118;2023-09-18T08:02:37;100149.16;;;21.11;85.17
35848;BME280;22332;51.954;20.118;2023-09-18T08:05:43;100145.90;;;21.16;85.12
35848;BME280;22332;51.954;20.118;2023-09-18T08:08:49;100142.58;;;21.22;84.86
35848;BME280;22332;51.954;20.118;2023-09-18T08:11:55;100141.97;;;21.29;85.01
35848;BME280;22332;51.954;20.118;2023-09-18T08:15:00;100136.83;;;21.40;84.77
35848;BME280;22332;51.954;20.118;2023-09-18T08:18:07;100135.67;;;21.50;84.27
35848;BME280;22332;51.954;20.118;2023-09-18T08:21:12;100134.40;;;21.59;84.18
35848;BME280;22332;51.954;20.118;2023-09-18T08:24:18;100134.65;;;21.66;83.94
35848;BME280;22332;51.954;20.118;2023-09-18T08:27:25;100134.55;;;21.70;83.59
35848;BME280;22332;51.954;20.118;2023-09-18T08:30:31;100135.40;;;21.76;83.47
35848;BME280;22332;51.954;20.118;2023-09-18T08:33:36;100135.12;;;21.84;83.54
35848;BME280;22332;51.954;20.118;2023-09-18T08:36:42;100128.76;;;21.93;83.31
35848;BME280;22332;51.954;20.118;2023-09-18T08:39:48;100123.97;;;22.04;83.09
35848;BME280;22332;51.954;20.118;2023-09-18T08:42:56;100120.05;;;22.12;82.89
35848;BME280;22332;51.954;20.118;2023-09-18T08:46:04;100124.23;;;22.20;83.08
35848;BME280;22332;51.954;20.118;2023-09-18T08:49:12;100120.95;;;22.25;82.61
35848;BME280;22332;51.954;20.118;2023-09-18T08:52:19;100119.25;;;22.30;82.33
35848;BME280;22332;51.954;20.118;2023-09-18T08:55:25;100116.77;;;22.36;82.35
35848;BME280;22332;51.954;20.118;2023-09-18T08:58:33;100109.64;;;22.45;81.95
35848;BME280;22332;51.954;20.118;2023-09-18T09:01:40;100106.51;;;22.54;81.59
35848;BME280;22332;51.954;20.118;2023-09-18T09:04:45;100102.70;;;22.66;81.80
35848;BME280;22332;51.954;20.118;2023-09-18T09:07:51;100092.70;;;22.76;81.46
35848;BME280;22332;51.954;20.118;2023-09-18T09:10:57;100096.68;;;22.82;81.24
35848;BME280;22332;51.954;20.118;2023-09-18T09:14:13;100089.70;;;22.88;81.11
35848;BME280;22332;51.954;20.118;2023-09-18T09:17:23;100091.58;;;22.95;80.52
35848;BME280;22332;51.954;20.118;2023-09-18T09:20:29;100087.63;;;23.00;80.37
35848;BME280;22332;51.954;20.118;2023-09-18T09:23:48;100088.02;;;23.09;80.42
35848;BME280;22332;51.954;20.118;2023-09-18T09:27:00;100082.81;;;23.19;80.10
35848;BME280;22332;51.954;20.118;2023-09-18T09:30:08;100074.23;;;23.28;79.96
35848;BME280;22332;51.954;20.118;2023-09-18T09:33:14;100072.04;;;23.38;79.42
35848;BME280;22332;51.954;20.118;2023-09-18T09:36:21;100067.81;;;23.45;79.01
35848;BME280;22332;51.954;20.118;2023-09-18T09:39:27;100073.28;;;23.51;78.65
35848;BME280;22332;51.954;20.118;2023-09-18T09:42:39;100070.81;;;23.59;78.31
35848;BME280;22332;51.954;20.118;2023-09-18T09:45:47;100065.81;;;23.63;77.98
35848;BME280;22332;51.954;20.118;2023-09-18T09:49:03;100057.08;;;23.68;78.15
35848;BME280;22332;51.954;20.118;2023-09-18T09:52:18;100055.31;;;23.70;77.56
35848;BME280;22332;51.954;20.118;2023-09-18T09:55:28;100051.02;;;23.74;77.53
35848;BME280;22332;51.954;20.118;2023-09-18T09:58:35;100047.59;;;23.79;76.94
35848;BME280;22332;51.954;20.118;2023-09-18T10:01:41;100051.22;;;23.86;76.37
35848;BME280;22332;51.954;20.118;2023-09-18T10:04:50;100044.44;;;23.90;76.01
35848;BME280;22332;51.954;20.118;2023-09-18T10:07:58;100043.39;;;23.94;75.77
35848;BME280;22332;51.954;20.118;2023-09-18T10:11:08;100038.27;;;23.97;75.63
35848;BME280;22332;51.954;20.118;2023-09-18T10:14:18;100029.98;;;24.03;75.08
35848;BME280;22332;51.954;20.118;2023-09-18T10:17:24;100025.48;;;24.08;74.93
35848;BME280;22332;51.954;20.118;2023-09-18T10:20:30;100028.59;;;24.16;74.46
35848;BME280;22332;51.954;20.118;2023-09-18T10:23:51;100017.94;;;24.21;74.09
35848;BME280;22332;51.954;20.118;2023-09-18T10:27:01;100014.09;;;24.26;73.71
35848;BME280;22332;51.954;20.118;2023-09-18T10:30:10;100015.15;;;24.36;73.37
35848;BME280;22332;51.954;20.118;2023-09-18T10:33:16;100010.71;;;24.45;72.29
35848;BME280;22332;51.954;20.118;2023-09-18T10:36:22;100010.75;;;24.50;72.16
35848;BME280;22332;51.954;20.118;2023-09-18T10:39:30;100013.48;;;24.62;71.64
35848;BME280;22332;51.954;20.118;2023-09-18T10:42:39;100011.91;;;24.75;71.12
35848;BME280;22332;51.954;20.118;2023-09-18T10:45:45;100007.03;;;24.81;70.20
35848;BME280;22332;51.954;20.118;2023-09-18T10:48:52;100002.85;;;24.83;70.56
35848;BME280;22332;51.954;20.118;2023-09-18T10:51:59;99989.14;;;24.91;69.97
35848;BME280;22332;51.954;20.118;2023-09-18T10:55:06;99984.60;;;25.00;69.69
35848;BME280;22332;51.954;20.118;2023-09-18T10:58:13;99979.98;;;25.02;69.27
35848;BME280;22332;51.954;20.118;2023-09-18T11:01:30;99975.20;;;25.00;69.05
35848;BME280;22332;51.954;20.118;2023-09-18T11:04:36;99970.64;;;25.05;68.75
35848;BME280;22332;51.954;20.118;2023-09-18T11:07:42;99968.46;;;25.13;67.88
35848;BME280;22332;51.954;20.118;2023-09-18T11:10:59;99962.58;;;25.22;67.82
35848;BME280;22332;51.954;20.118;2023-09-18T11:14:12;99957.91;;;25.35;67.30
35848;BME280;22332;51.954;20.118;2023-09-18T11:17:33;99957.96;;;25.45;66.54
35848;BME280;22332;51.954;20.118;2023-09-18T11:20:40;99955.80;;;25.48;66.20
35848;BME280;22332;51.954;20.118;2023-09-18T11:23:45;99958.84;;;25.50;66.29
35848;BME280;22332;51.954;20.118;2023-09-18T11:26:52;99957.27;;;25.58;65.85
35848;BME280;22332;51.954;20.118;2023-09-18T11:29:58;99954.44;;;25.67;65.04
35848;BME280;22332;51.954;20.118;2023-09-18T11:33:05;99950.58;;;25.69;64.53
35848;BME280;22332;51.954;20.118;2023-09-18T11:36:28;99951.56;;;25.69;64.20
35848;BME280;22332;51.954;20.118;2023-09-18T11:39:36;99951.92;;;25.74;64.00
35848;BME280;22332;51.954;20.118;2023-09-18T11:46:28;99941.09;;;25.87;62.40
35848;BME280;22332;51.954;20.118;2023-09-18T11:49:36;99941.43;;;25.92;62.25
35848;BME280;22332;51.954;20.118;2023-09-18T11:52:43;99943.71;;;25.98;62.60
35848;BME280;22332;51.954;20.118;2023-09-18T11:55:49;99941.67;;;26.02;62.01
35848;BME280;22332;51.954;20.118;2023-09-18T11:58:55;99940.77;;;26.06;61.56
35848;BME280;22332;51.954;20.118;2023-09-18T12:02:00;99940.95;;;26.02;61.39
35848;BME280;22332;51.954;20.118;2023-09-18T12:05:13;99937.97;;;25.96;60.76
35848;BME280;22332;51.954;20.118;2023-09-18T12:08:19;99940.52;;;26.00;60.51
35848;BME280;22332;51.954;20.118;2023-09-18T12:11:25;99939.24;;;26.07;59.78
35848;BME280;22332;51.954;20.118;2023-09-18T12:14:31;99932.63;;;26.07;59.98
35848;BME280;22332;51.954;20.118;2023-09-18T12:17:37;99930.06;;;26.00;59.85
35848;BME280;22332;51.954;20.118;2023-09-18T12:20:50;99932.30;;;25.97;59.83
35848;BME280;22332;51.954;20.118;2023-09-18T12:23:56;99925.05;;;26.02;59.67
35848;BME280;22332;51.954;20.118;2023-09-18T12:27:01;99925.23;;;26.06;58.98
35848;BME280;22332;51.954;20.118;2023-09-18T12:30:10;99927.48;;;26.07;57.76
35848;BME280;22332;51.954;20.118;2023-09-18T12:33:18;99926.02;;;25.98;57.85
35848;BME280;22332;51.954;20.118;2023-09-18T12:36:25;99918.49;;;25.95;57.94
35848;BME280;22332;51.954;20.118;2023-09-18T12:39:34;99909.67;;;26.00;57.92
35848;BME280;22332;51.954;20.118;2023-09-18T12:42:40;99908.69;;;26.10;56.98
35848;BME280;22332;51.954;20.118;2023-09-18T12:45:46;99913.27;;;26.16;56.98
35848;BME280;22332;51.954;20.118;2023-09-18T12:48:52;99909.60;;;26.17;56.60
35848;BME280;22332;51.954;20.118;2023-09-18T12:51:59;99902.49;;;26.17;56.76
35848;BME280;22332;51.954;20.118;2023-09-18T12:55:05;99896.90;;;26.13;56.99
35848;BME280;22332;51.954;20.118;2023-09-18T12:58:13;99886.48;;;26.08;56.80
35848;BME280;22332;51.954;20.118;2023-09-18T13:01:18;99885.33;;;26.05;56.49
35848;BME280;22332;51.954;20.118;2023-09-18T13:04:26;99882.26;;;25.97;56.35
35848;BME280;22332;51.954;20.118;2023-09-18T13:07:32;99877.59;;;25.89;55.99
35848;BME280;22332;51.954;20.118;2023-09-18T13:10:50;99877.17;;;25.84;56.10
35848;BME280;22332;51.954;20.118;2023-09-18T13:14:00;99873.79;;;25.86;55.76
35848;BME280;22332;51.954;20.118;2023-09-18T13:17:05;99868.70;;;25.84;55.48
35848;BME280;22332;51.954;20.118;2023-09-18T13:20:16;99866.58;;;25.78;55.38
35848;BME280;22332;51.954;20.118;2023-09-18T13:23:31;99860.11;;;25.75;54.98
35848;BME280;22332;51.954;20.118;2023-09-18T13:26:37;99854.38;;;25.66;54.91
35848;BME280;22332;51.954;20.118;2023-09-18T13:29:42;99851.27;;;25.65;55.14
35848;BME280;22332;51.954;20.118;2023-09-18T13:32:48;99846.89;;;25.67;54.80
35848;BME280;22332;51.954;20.118;2023-09-18T13:35:55;99844.89;;;25.61;54.82
35848;BME280;22332;51.954;20.118;2023-09-18T13:39:00;99843.03;;;25.54;54.63
35848;BME280;22332;51.954;20.118;2023-09-18T13:42:07;99840.07;;;25.51;54.71
35848;BME280;22332;51.954;20.118;2023-09-18T13:45:13;99836.91;;;25.47;54.42
35848;BME280;22332;51.954;20.118;2023-09-18T13:48:20;99834.31;;;25.42;54.52
35848;BME280;22332;51.954;20.118;2023-09-18T13:51:27;99828.85;;;25.43;54.71
35848;BME280;22332;51.954;20.118;2023-09-18T13:54:32;99826.80;;;25.45;54.51
35848;BME280;22332;51.954;20.118;2023-09-18T13:57:38;99823.45;;;25.51;54.51
35848;BME280;22332;51.954;20.118;2023-09-18T14:00:45;99822.25;;;25.60;54.29
35848;BME280;22332;51.954;20.118;2023-09-18T14:03:54;99824.20;;;25.65;53.86
35848;BME280;22332;51.954;20.118;2023-09-18T14:07:00;99822.34;;;25.65;53.52
35848;BME280;22332;51.954;20.118;2023-09-18T14:10:09;99822.88;;;25.62;53.58
35848;BME280;22332;51.954;20.118;2023-09-18T14:13:15;99816.95;;;25.60;53.75
35848;BME280;22332;51.954;20.118;2023-09-18T14:16:21;99817.05;;;25.57;53.73
35848;BME280;22332;51.954;20.118;2023-09-18T14:19:27;99813.86;;;25.54;53.60
35848;BME280;22332;51.954;20.118;2023-09-18T14:22:33;99804.74;;;25.48;53.61
35848;BME280;22332;51.954;20.118;2023-09-18T14:25:39;99802.29;;;25.41;53.40
35848;BME280;22332;51.954;20.118;2023-09-18T14:28:45;99794.07;;;25.37;53.59
35848;BME280;22332;51.954;20.118;2023-09-18T14:31:51;99792.23;;;25.33;53.61
35848;BME280;22332;51.954;20.118;2023-09-18T14:34:56;99796.80;;;25.29;53.24
35848;BME280;22332;51.954;20.118;2023-09-18T14:38:05;99795.54;;;25.27;53.22
35848;BME280;22332;51.954;20.118;2023-09-18T14:41:11;99792.67;;;25.24;53.08
35848;BME280;22332;51.954;20.118;2023-09-18T14:44:17;99788.37;;;25.22;52.82
35848;BME280;22332;51.954;20.118;2023-09-18T14:47:23;99786.64;;;25.18;53.02
35848;BME280;22332;51.954;20.118;2023-09-18T14:50:28;99779.82;;;25.11;52.66
35848;BME280;22332;51.954;20.118;2023-09-18T14:53:34;99775.28;;;25.05;52.63
35848;BME280;22332;51.954;20.118;2023-09-18T14:56:39;99773.02;;;25.01;52.56
35848;BME280;22332;51.954;20.118;2023-09-18T14:59:45;99767.13;;;24.96;52.42
35848;BME280;22332;51.954;20.118;2023-09-18T15:02:52;99773.36;;;24.91;52.40
35848;BME280;22332;51.954;20.118;2023-09-18T15:05:57;99766.21;;;24.84;52.36
35848;BME280;22332;51.954;20.118;2023-09-18T15:09:03;99764.02;;;24.77;52.38
35848;BME280;22332;51.954;20.118;2023-09-18T15:12:11;99760.70;;;24.72;52.36
35848;BME280;22332;51.954;20.118;2023-09-18T15:15:17;99763.73;;;24.67;52.32
35848;BME280;22332;51.954;20.118;2023-09-18T15:18:27;99762.93;;;24.66;52.36
35848;BME280;22332;51.954;20.118;2023-09-18T15:21:33;99766.18;;;24.64;52.21
35848;BME280;22332;51.954;20.118;2023-09-18T15:24:39;99761.75;;;24.62;52.37
35848;BME280;22332;51.954;20.118;2023-09-18T15:27:44;99764.77;;;24.58;52.19
35848;BME280;22332;51.954;20.118;2023-09-18T15:30:51;99762.66;;;24.54;52.29
35848;BME280;22332;51.954;20.118;2023-09-18T15:33:57;99756.92;;;24.50;52.41
35848;BME280;22332;51.954;20.118;2023-09-18T15:37:02;99754.30;;;24.45;52.48
35848;BME280;22332;51.954;20.118;2023-09-18T15:40:11;99749.56;;;24.41;52.56
35848;BME280;22332;51.954;20.118;2023-09-18T15:43:17;99748.33;;;24.37;52.54
35848;BME280;22332;51.954;20.118;2023-09-18T15:46:23;99740.45;;;24.30;52.64
35848;BME280;22332;51.954;20.118;2023-09-18T15:49:29;99741.86;;;24.24;52.62
35848;BME280;22332;51.954;20.118;2023-09-18T15:52:37;99739.60;;;24.17;52.84
35848;BME280;22332;51.954;20.118;2023-09-18T15:55:42;99739.40;;;24.09;52.76
35848;BME280;22332;51.954;20.118;2023-09-18T15:58:48;99737.75;;;24.03;52.87
35848;BME280;22332;51.954;20.118;2023-09-18T16:01:54;99731.75;;;23.96;53.03
35848;BME280;22332;51.954;20.118;2023-09-18T16:05:00;99724.00;;;23.91;53.07
35848;BME280;22332;51.954;20.118;2023-09-18T16:08:08;99720.33;;;23.86;53.14
35848;BME280;22332;51.954;20.118;2023-09-18T16:11:14;99713.54;;;23.79;53.25
35848;BME280;22332;51.954;20.118;2023-09-18T16:14:20;99706.19;;;23.73;53.18
35848;BME280;22332;51.954;20.118;2023-09-18T16:17:25;99703.97;;;23.65;53.37
35848;BME280;22332;51.954;20.118;2023-09-18T16:20:31;99705.77;;;23.56;53.48
35848;BME280;22332;51.954;20.118;2023-09-18T16:23:37;99704.98;;;23.47;53.73
35848;BME280;22332;51.954;20.118;2023-09-18T16:26:43;99703.39;;;23.38;53.92
35848;BME280;22332;51.954;20.118;2023-09-18T16:29:49;99700.30;;;23.28;54.12
35848;BME280;22332;51.954;20.118;2023-09-18T16:32:54;99698.90;;;23.17;54.09
35848;BME280;22332;51.954;20.118;2023-09-18T16:36:00;99697.82;;;23.07;54.39
35848;BME280;22332;51.954;20.118;2023-09-18T16:39:10;99700.30;;;22.96;54.35
35848;BME280;22332;51.954;20.118;2023-09-18T16:42:19;99696.04;;;22.84;54.64
35848;BME280;22332;51.954;20.118;2023-09-18T16:45:26;99695.14;;;22.73;54.78
35848;BME280;22332;51.954;20.118;2023-09-18T16:48:35;99701.48;;;22.62;55.16
35848;BME280;22332;51.954;20.118;2023-09-18T16:51:45;99692.69;;;22.50;55.38
35848;BME280;22332;51.954;20.118;2023-09-18T16:54:50;99689.98;;;22.38;55.53
35848;BME280;22332;51.954;20.118;2023-09-18T16:57:57;99690.35;;;22.28;55.87
35848;BME280;22332;51.954;20.118;2023-09-18T17:01:03;99686.92;;;22.17;56.14
35848;BME280;22332;51.954;20.118;2023-09-18T17:04:10;99681.03;;;22.08;56.22
35848;BME280;22332;51.954;20.118;2023-09-18T17:07:18;99679.81;;;21.98;56.35
35848;BME280;22332;51.954;20.118;2023-09-18T17:10:23;99676.88;;;21.89;56.76
35848;BME280;22332;51.954;20.118;2023-09-18T17:13:29;99680.42;;;21.79;56.94
35848;BME280;22332;51.954;20.118;2023-09-18T17:16:35;99685.56;;;21.69;57.25
35848;BME280;22332;51.954;20.118;2023-09-18T17:19:40;99686.47;;;21.59;57.66
35848;BME280;22332;51.954;20.118;2023-09-18T17:22:47;99684.70;;;21.47;57.87
35848;BME280;22332;51.954;20.118;2023-09-18T17:25:53;99687.59;;;21.36;58.10
35848;BME280;22332;51.954;20.118;2023-09-18T17:28:58;99685.89;;;21.26;58.45
35848;BME280;22332;51.954;20.118;2023-09-18T17:32:05;99685.17;;;21.16;58.64
35848;BME280;22332;51.954;20.118;2023-09-18T17:35:12;99686.20;;;21.06;58.91
35848;BME280;22332;51.954;20.118;2023-09-18T17:38:18;99686.64;;;20.97;59.12
35848;BME280;22332;51.954;20.118;2023-09-18T17:41:23;99680.70;;;20.86;59.43
35848;BME280;22332;51.954;20.118;2023-09-18T17:44:32;99683.73;;;20.79;59.69
35848;BME280;22332;51.954;20.118;2023-09-18T17:47:39;99683.94;;;20.72;60.03
35848;BME280;22332;51.954;20.118;2023-09-18T17:50:45;99684.38;;;20.65;60.00
35848;BME280;22332;51.954;20.118;2023-09-18T17:53:51;99680.95;;;20.59;60.40
35848;BME280;22332;51.954;20.118;2023-09-18T17:56:56;99678.91;;;20.52;60.53
35848;BME280;22332;51.954;20.118;2023-09-18T18:00:04;99680.01;;;20.46;60.84
35848;BME280;22332;51.954;20.118;2023-09-18T18:03:10;99679.27;;;20.40;61.01
35848;BME280;22332;51.954;20.118;2023-09-18T18:06:21;99677.02;;;20.35;61.35
35848;BME280;22332;51.954;20.118;2023-09-18T18:09:27;99677.20;;;20.30;61.63
35848;BME280;22332;51.954;20.118;2023-09-18T18:12:33;99677.27;;;20.28;61.84
35848;BME280;22332;51.954;20.118;2023-09-18T18:15:39;99673.09;;;20.27;61.91
35848;BME280;22332;51.954;20.118;2023-09-18T18:18:45;99672.23;;;20.28;62.15
35848;BME280;22332;51.954;20.118;2023-09-18T18:21:51;99671.08;;;20.28;62.38
35848;BME280;22332;51.954;20.118;2023-09-18T18:24:57;99670.73;;;20.26;62.47
35848;BME280;22332;51.954;20.118;2023-09-18T18:28:03;99670.50;;;20.24;62.68
35848;BME280;22332;51.954;20.118;2023-09-18T18:31:09;99670.34;;;20.23;62.84
35848;BME280;22332;51.954;20.118;2023-09-18T18:34:17;99668.98;;;20.19;63.07
35848;BME280;22332;51.954;20.118;2023-09-18T18:37:24;99668.98;;;20.17;63.21
35848;BME280;22332;51.954;20.118;2023-09-18T18:40:30;99668.66;;;20.13;63.44
35848;BME280;22332;51.954;20.118;2023-09-18T18:43:36;99666.19;;;20.11;63.55
35848;BME280;22332;51.954;20.118;2023-09-18T18:46:42;99664.03;;;20.07;63.80
35848;BME280;22332;51.954;20.118;2023-09-18T18:49:47;99664.10;;;20.03;63.91
35848;BME280;22332;51.954;20.118;2023-09-18T18:52:53;99660.73;;;19.98;64.21
35848;BME280;22332;51.954;20.118;2023-09-18T18:55:58;99662.14;;;19.96;64.42
35848;BME280;22332;51.954;20.118;2023-09-18T18:59:04;99663.51;;;19.97;64.58
35848;BME280;22332;51.954;20.118;2023-09-18T19:02:10;99656.63;;;19.97;64.77
35848;BME280;22332;51.954;20.118;2023-09-18T19:05:16;99656.02;;;19.96;64.94
35848;BME280;22332;51.954;20.118;2023-09-18T19:08:21;99654.51;;;19.94;65.18
35848;BME280;22332;51.954;20.118;2023-09-18T19:11:27;99659.09;;;19.92;65.24
35848;BME280;22332;51.954;20.118;2023-09-18T19:14:33;99659.52;;;19.87;65.55
35848;BME280;22332;51.954;20.118;2023-09-18T19:17:39;99655.35;;;19.84;65.94
35848;BME280;22332;51.954;20.118;2023-09-18T19:20:47;99648.81;;;19.81;66.07
35848;BME280;22332;51.954;20.118;2023-09-18T19:23:53;99644.52;;;19.78;66.43
35848;BME280;22332;51.954;20.118;2023-09-18T19:26:58;99644.33;;;19.77;66.69
35848;BME280;22332;51.954;20.118;2023-09-18T19:30:06;99635.84;;;19.77;66.87
35848;BME280;22332;51.954;20.118;2023-09-18T19:33:12;99635.48;;;19.78;67.10
35848;BME280;22332;51.954;20.118;2023-09-18T19:36:18;99633.79;;;19.81;67.24
35848;BME280;22332;51.954;20.118;2023-09-18T19:39:24;99626.05;;;19.82;67.42
35848;BME280;22332;51.954;20.118;2023-09-18T19:42:29;99623.34;;;19.82;67.64
35848;BME280;22332;51.954;20.118;2023-09-18T19:45:35;99620.80;;;19.80;67.87
35848;BME280;22332;51.954;20.118;2023-09-18T19:48:40;99615.86;;;19.78;68.26
35848;BME280;22332;51.954;20.118;2023-09-18T19:51:46;99622.92;;;19.76;68.34